Time;durP1;ratioP1;P1;durP2;ratioP2;P2;SDS_P1;SDS_P2;PMS_P1;PMS_P2;Temp;Humidity;BMP_temperature;BMP_pressure;BME280_temperature;BME280_humidity;BME280_pressure;Samples;Min_cycle;Max_cycle;Signal;HPM_P1;HPM_P2
2021/03/09 00:01:23;;;;;;;28.55;17.42;;;;;;;9.27;49.32;101966.19;4931712;28;123913;-70
2021/03/09 00:03:50;;;;;;;31.33;17.60;;;;;;;9.25;49.79;101970.63;4927853;28;118384;-71
2021/03/09 00:06:16;;;;;;;28.40;16.77;;;;;;;9.22;49.83;101965.41;4934255;28;119628;-71
2021/03/09 00:08:43;;;;;;;31.75;17.23;;;;;;;9.21;49.69;101968.94;4934629;28;124758;-70
2021/03/09 00:11:09;;;;;;;32.40;16.92;;;;;;;9.22;49.70;101966.28;4932574;28;123722;-70
2021/03/09 00:13:36;;;;;;;32.97;17.88;;;;;;;9.22;49.72;101970.72;4932562;28;119630;-70
2021/03/09 00:16:03;;;;;;;29.25;17.05;;;;;;;9.16;49.79;101967.28;4935167;28;118996;-70
2021/03/09 00:18:29;;;;;;;31.63;16.42;;;;;;;9.13;50.11;101956.75;4932797;28;125204;-70
2021/03/09 00:20:56;;;;;;;29.10;17.08;;;;;;;9.12;50.08;101959.47;4933419;28;123899;-71
2021/03/09 00:23:23;;;;;;;29.23;16.85;;;;;;;9.10;50.25;101962.13;4928785;28;119151;-70
2021/03/09 00:25:50;;;;;;;32.63;18.25;;;;;;;9.08;50.36;101953.38;4929602;28;118860;-70
2021/03/09 00:28:20;;;;;;;33.92;18.48;;;;;;;9.06;50.66;101952.53;4913551;28;123052;-70
2021/03/09 00:30:47;;;;;;;34.53;19.10;;;;;;;9.03;50.49;101949.94;4932586;28;123723;-70
2021/03/09 00:33:14;;;;;;;31.88;18.60;;;;;;;9.00;50.38;101960.56;4933248;28;119060;-70
2021/03/09 00:35:40;;;;;;;37.88;20.52;;;;;;;8.96;50.81;101958.88;4933256;28;118768;-70
2021/03/09 00:38:32;;;;;;;34.97;19.80;;;;;;;8.90;50.49;101959.03;4934947;28;124679;-71
2021/03/09 00:40:59;;;;;;;40.60;21.42;;;;;;;8.87;50.90;101954.69;4915334;28;122639;-67
2021/03/09 00:43:25;;;;;;;37.08;20.75;;;;;;;8.83;50.66;101952.13;4927730;28;121039;-67
2021/03/09 00:45:52;;;;;;;37.58;21.13;;;;;;;8.81;51.12;101954.78;4935810;28;120290;-67
2021/03/09 00:48:19;;;;;;;38.40;20.45;;;;;;;8.80;51.11;101953.06;4915648;28;123314;-67
2021/03/09 00:50:45;;;;;;;38.55;20.75;;;;;;;8.79;51.33;101945.16;4933319;28;122970;-66
2021/03/09 00:53:12;;;;;;;40.53;22.67;;;;;;;8.77;51.56;101939.91;4915858;28;120193;-67
2021/03/09 00:55:39;;;;;;;38.03;21.50;;;;;;;8.71;51.68;101943.53;4932485;28;119730;-67
2021/03/09 00:58:05;;;;;;;39.70;22.52;;;;;;;8.69;51.77;101934.78;4915125;28;124032;-67
2021/03/09 01:00:32;;;;;;;42.67;23.38;;;;;;;8.69;51.89;101934.78;4937079;28;124530;-68
2021/03/09 01:02:59;;;;;;;40.63;23.35;;;;;;;8.68;51.80;101933.06;4914240;28;119299;-67
2021/03/09 01:05:26;;;;;;;43.38;23.88;;;;;;;8.67;51.76;101926.00;4915008;28;118747;-67
2021/03/09 01:07:52;;;;;;;45.67;24.15;;;;;;;8.66;51.79;101923.41;4932704;28;123899;-67
2021/03/09 01:10:21;;;;;;;39.97;22.63;;;;;;;8.63;52.04;101929.63;4935617;28;124337;-67
2021/03/09 01:12:47;;;;;;;40.67;23.35;;;;;;;8.62;52.20;101927.88;4935150;28;119295;-66
2021/03/09 01:15:14;;;;;;;44.60;24.27;;;;;;;8.60;52.26;101924.38;4933323;28;119816;-67
2021/03/09 01:17:41;;;;;;;46.20;24.83;;;;;;;8.58;52.17;101915.63;4935485;28;124577;-67
2021/03/09 01:20:09;;;;;;;43.83;23.75;;;;;;;8.57;52.16;101913.91;4935504;28;123420;-67
2021/03/09 01:22:35;;;;;;;45.67;24.50;;;;;;;8.56;52.53;101907.72;4935176;28;119936;-67
2021/03/09 01:25:04;;;;;;;45.83;24.58;;;;;;;8.57;52.58;101911.25;4938034;28;118841;-67
2021/03/09 01:27:31;;;;;;;47.90;25.92;;;;;;;8.57;52.27;101903.34;4920050;28;123039;-68
2021/03/09 01:29:57;;;;;;;47.33;24.92;;;;;;;8.56;52.47;101896.31;4900228;28;123548;-67
2021/03/09 01:32:24;;;;;;;47.42;25.65;;;;;;;8.54;52.69;101895.47;4930729;28;120746;-67
2021/03/09 01:34:51;;;;;;;45.65;25.70;;;;;;;8.55;52.61;101889.28;4933287;28;119917;-67
2021/03/09 01:37:18;;;;;;;52.15;26.80;;;;;;;8.55;52.97;101884.00;4916316;28;124134;-68
2021/03/09 01:39:45;;;;;;;46.05;25.83;;;;;;;8.54;52.92;101882.28;4914068;28;123706;-67
2021/03/09 01:42:11;;;;;;;50.03;26.38;;;;;;;8.54;53.03;101882.28;4918823;28;119024;-67
2021/03/09 01:44:39;;;;;;;47.42;27.33;;;;;;;8.53;52.95;101870.84;4931009;28;119777;-67
2021/03/09 01:47:06;;;;;;;47.80;25.55;;;;;;;8.55;52.88;101873.44;4913628;28;124388;-67
2021/03/09 01:49:36;;;;;;;50.55;27.35;;;;;;;8.55;53.17;101868.16;4913403;28;124402;-67
2021/03/09 01:52:06;;;;;;;51.25;27.15;;;;;;;8.57;53.08;101866.38;4931004;28;118732;-66
2021/03/09 01:54:33;;;;;;;47.97;26.60;;;;;;;8.58;53.04;101868.09;4911070;28;117764;-67
2021/03/09 01:57:00;;;;;;;48.90;27.30;;;;;;;8.57;53.39;101861.97;4930161;28;123724;-67
2021/03/09 01:59:27;;;;;;;49.58;27.05;;;;;;;8.56;53.38;101864.63;4930855;28;124168;-67
2021/03/09 02:01:54;;;;;;;52.90;28.63;;;;;;;8.55;53.56;101853.19;4932533;28;119168;-67
2021/03/09 02:04:21;;;;;;;55.47;28.13;;;;;;;8.54;53.19;101861.16;4912490;28;118727;-67
2021/03/09 02:06:48;;;;;;;55.50;28.42;;;;;;;8.54;53.38;101856.72;4912867;28;123194;-66
2021/03/09 02:09:15;;;;;;;57.42;29.33;;;;;;;8.55;53.55;101847.03;4914304;28;123333;-67
2021/03/09 02:11:53;;;;;;;52.45;28.67;;;;;;;8.55;53.57;101847.03;4931987;28;119224;-67
2021/03/09 02:14:28;;;;;;;56.28;27.98;;;;;;;8.54;54.01;101845.31;4910229;28;118952;-67
2021/03/09 02:17:15;;;;;;;55.77;28.47;;;;;;;8.53;53.94;101843.56;4931220;28;124179;-68
2021/03/09 02:20:20;;;;;;;56.83;29.85;;;;;;;8.53;53.89;101835.63;4933544;28;123662;-67
2021/03/09 02:23:26;;;;;;;56.63;29.20;;;;;;;8.51;53.63;101833.03;4913977;28;119519;-67
2021/03/09 02:26:20;;;;;;;55.50;29.40;;;;;;;8.49;53.92;101826.03;4943167;28;120164;-67
2021/03/09 02:28:54;;;;;;;53.65;29.23;;;;;;;8.46;53.65;101826.13;4931651;28;124700;-67
2021/03/09 02:31:27;;;;;;;53.03;29.02;;;;;;;8.46;54.07;101820.84;4928906;28;122955;-67
2021/03/09 02:33:59;;;;;;;55.28;29.02;;;;;;;8.47;54.21;101819.91;4930137;28;120076;-67
2021/03/09 02:36:29;;;;;;;53.80;29.40;;;;;;;8.47;54.25;101817.28;4917042;28;117900;-67
2021/03/09 02:39:00;;;;;;;55.95;30.55;;;;;;;8.47;54.22;101812.00;4932913;28;124331;-67
2021/03/09 02:41:29;;;;;;;55.03;29.30;;;;;;;8.46;54.18;101799.72;4935398;28;123970;-66
2021/03/09 02:43:56;;;;;;;56.35;29.10;;;;;;;8.44;54.44;101801.50;4934516;28;119551;-66
2021/03/09 02:46:27;;;;;;;54.63;29.08;;;;;;;8.41;54.71;101801.53;4932686;28;119726;-67
2021/03/09 02:48:55;;;;;;;56.78;28.17;;;;;;;8.39;54.66;101794.50;4929941;28;123665;-67
2021/03/09 02:51:26;;;;;;;56.03;28.75;;;;;;;8.37;54.39;101796.31;4914184;28;122748;-67
2021/03/09 02:53:56;;;;;;;51.78;27.27;;;;;;;8.36;54.66;101789.31;4934102;28;119120;-67
2021/03/09 02:56:24;;;;;;;52.10;27.73;;;;;;;8.35;54.88;101781.44;4918747;28;119360;-67
2021/03/09 02:58:53;;;;;;;51.00;28.30;;;;;;;8.34;54.56;101780.56;4933540;28;124089;-67
2021/03/09 03:01:24;;;;;;;51.70;26.98;;;;;;;8.34;54.91;101779.66;4915784;28;123675;-67
2021/03/09 03:03:54;;;;;;;51.08;26.38;;;;;;;8.32;54.76;101771.78;4934086;28;118411;-68
2021/03/09 03:06:22;;;;;;;48.65;25.25;;;;;;;8.31;54.78;101775.34;4936741;28;118819;-67
2021/03/09 03:08:49;;;;;;;47.78;26.10;;;;;;;8.29;54.85;101777.13;4917535;28;123597;-67
2021/03/09 03:11:18;;;;;;;52.35;26.85;;;;;;;8.28;55.34;101778.03;4930434;28;122766;-67
2021/03/09 03:13:45;;;;;;;51.67;27.50;;;;;;;8.28;55.26;101769.25;4916954;28;119103;-67
2021/03/09 03:16:13;;;;;;;49.22;26.85;;;;;;;8.29;55.03;101771.88;4932526;28;120253;-67
2021/03/09 03:18:42;;;;;;;49.28;26.73;;;;;;;8.29;55.17;101761.31;4932706;28;124180;-68
2021/03/09 03:21:14;;;;;;;52.65;27.58;;;;;;;8.28;55.17;101764.84;4918562;28;122887;-67
2021/03/09 03:23:42;;;;;;;51.90;27.92;;;;;;;8.29;55.42;101758.66;4918668;28;118521;-68
2021/03/09 03:26:12;;;;;;;54.83;27.80;;;;;;;8.28;55.35;101759.56;4901725;28;118127;-67
2021/03/09 03:28:44;;;;;;;55.00;28.38;;;;;;;8.27;55.63;101752.56;4933101;28;123700;-67
2021/03/09 03:31:10;;;;;;;53.20;29.30;;;;;;;8.27;55.48;101752.56;4934973;28;124285;-66
2021/03/09 03:33:37;;;;;;;52.20;28.23;;;;;;;8.26;55.45;101753.44;4915634;28;119578;-66
2021/03/09 03:36:05;;;;;;;52.70;28.02;;;;;;;8.27;55.64;101742.00;4935113;28;119006;-67
2021/03/09 03:38:37;;;;;;;58.20;29.85;;;;;;;8.29;55.54;101740.19;4934485;28;124004;-68
2021/03/09 03:41:05;;;;;;;50.05;27.33;;;;;;;8.31;55.69;101738.38;4915079;28;123419;-69
2021/03/09 03:43:33;;;;;;;53.30;28.42;;;;;;;8.29;55.74;101740.19;4935288;28;119363;-67
2021/03/09 03:46:00;;;;;;;54.92;29.33;;;;;;;8.28;55.64;101733.16;4915107;28;118528;-67
2021/03/09 03:48:31;;;;;;;50.45;27.38;;;;;;;8.27;55.71;101736.72;4931103;28;124454;-67
2021/03/09 03:50:59;;;;;;;53.17;28.23;;;;;;;8.26;55.98;101729.69;4900136;28;122835;-67
2021/03/09 03:53:41;;;;;;;51.83;28.02;;;;;;;8.25;55.77;101730.59;4934706;28;119557;-67
2021/03/09 03:56:20;;;;;;;57.28;29.33;;;;;;;8.28;55.98;101727.88;4932156;28;119990;-67
2021/03/09 03:59:11;;;;;;;56.08;29.52;;;;;;;8.28;56.17;101727.88;4916876;28;122952;-67
2021/03/09 04:01:39;;;;;;;57.60;30.10;;;;;;;8.26;55.88;101724.41;4931923;28;125187;-67
2021/03/09 04:04:09;;;;;;;55.55;29.88;;;;;;;8.25;56.14;101730.59;4930840;28;121190;-66
2021/03/09 04:06:40;;;;;;;54.70;29.38;;;;;;;8.24;56.01;101720.94;4914583;28;119346;-68
2021/03/09 04:09:08;;;;;;;56.33;29.52;;;;;;;8.25;56.22;101722.69;4919871;28;123517;-67
2021/03/09 04:11:37;;;;;;;56.85;29.52;;;;;;;8.26;56.31;101719.13;4936768;28;123894;-67
2021/03/09 04:14:05;;;;;;;55.33;29.63;;;;;;;8.25;56.15;101727.06;4933672;28;119775;-66
2021/03/09 04:16:34;;;;;;;56.38;28.20;;;;;;;8.25;56.43;101721.78;4935028;28;118841;-67
2021/03/09 04:19:03;;;;;;;57.83;29.17;;;;;;;8.24;56.14;101714.81;4933093;28;124187;-67
2021/03/09 04:21:31;;;;;;;53.97;29.27;;;;;;;8.23;56.37;101713.03;4928510;28;122291;-67
2021/03/09 04:24:00;;;;;;;56.50;28.95;;;;;;;8.22;56.58;101720.09;4929292;28;119167;-69
2021/03/09 04:26:27;;;;;;;56.22;29.70;;;;;;;8.21;56.43;101715.72;4917410;28;118802;-68
2021/03/09 04:28:55;;;;;;;52.28;28.75;;;;;;;8.23;56.57;101713.94;4932750;28;125452;-67
2021/03/09 04:31:23;;;;;;;53.95;30.17;;;;;;;8.21;56.77;101715.72;4916851;28;124336;-67
2021/03/09 04:33:50;;;;;;;61.08;29.67;;;;;;;8.21;56.59;101710.44;4931907;28;119092;-67
2021/03/09 04:36:20;;;;;;;58.33;29.40;;;;;;;8.20;56.68;101706.06;4935118;28;118878;-67
2021/03/09 04:38:47;;;;;;;55.03;29.77;;;;;;;8.19;56.68;101713.13;4914656;28;124790;-67
2021/03/09 04:41:16;;;;;;;53.78;29.70;;;;;;;8.19;57.12;101697.31;4933043;28;123816;-67
2021/03/09 04:43:42;;;;;;;53.45;29.02;;;;;;;8.20;57.03;101700.81;4918082;28;119803;-67
2021/03/09 04:46:10;;;;;;;59.08;30.15;;;;;;;8.20;56.79;101703.44;4914881;28;118799;-67
2021/03/09 04:48:38;;;;;;;57.15;30.25;;;;;;;8.21;56.98;101697.25;4916898;28;123149;-67
2021/03/09 04:51:10;;;;;;;58.40;30.02;;;;;;;8.20;56.70;101692.88;4933271;28;124044;-67
2021/03/09 04:53:38;;;;;;;56.85;29.75;;;;;;;8.20;57.09;101692.88;4932789;28;120710;-67
2021/03/09 04:56:05;;;;;;;55.15;29.60;;;;;;;8.20;57.02;101692.88;4914938;28;120456;-67
2021/03/09 04:58:32;;;;;;;58.08;30.83;;;;;;;8.20;57.02;101692.88;4916256;28;124031;-67
2021/03/09 05:00:59;;;;;;;59.40;30.67;;;;;;;8.20;57.10;101687.59;4933222;28;123824;-67
2021/03/09 05:03:25;;;;;;;61.67;30.88;;;;;;;8.20;57.37;101687.59;4932294;28;118437;-67
2021/03/09 05:05:52;;;;;;;58.10;29.83;;;;;;;8.22;57.23;101685.78;4916901;28;119496;-67
2021/03/09 05:08:20;;;;;;;57.78;29.52;;;;;;;8.24;57.34;101677.84;4915323;28;124940;-67
2021/03/09 05:10:47;;;;;;;58.45;30.42;;;;;;;8.24;57.48;101681.34;4915223;28;122400;-67
2021/03/09 05:13:15;;;;;;;59.05;30.83;;;;;;;8.24;57.24;101681.34;4931475;28;119638;-67
2021/03/09 05:15:42;;;;;;;57.38;29.23;;;;;;;8.25;57.32;101685.75;4934687;28;117788;-67
2021/03/09 05:18:09;;;;;;;59.25;30.23;;;;;;;8.23;57.54;101682.28;4928305;28;123871;-67
2021/03/09 05:20:38;;;;;;;54.15;29.90;;;;;;;8.22;57.63;101680.53;4914808;28;123889;-69
2021/03/09 05:23:04;;;;;;;57.88;30.02;;;;;;;8.24;57.78;101684.00;4897451;28;118648;-67
2021/03/09 05:25:31;;;;;;;58.45;31.05;;;;;;;8.24;57.71;101681.34;4929865;28;118477;-67
2021/03/09 05:27:58;;;;;;;56.85;30.33;;;;;;;8.25;57.41;101685.75;4912198;28;122903;-67
2021/03/09 05:30:26;;;;;;;58.47;30.30;;;;;;;8.25;57.47;101680.47;4915478;28;123855;-67
2021/03/09 05:32:52;;;;;;;61.42;30.77;;;;;;;8.25;57.31;101683.09;4903303;28;118168;-67
2021/03/09 05:35:20;;;;;;;55.13;30.92;;;;;;;8.25;57.73;101685.75;4929571;28;121473;-67
2021/03/09 05:37:47;;;;;;;56.38;29.27;;;;;;;8.23;57.59;101682.28;4931268;28;123394;-67
2021/03/09 05:40:16;;;;;;;58.80;30.58;;;;;;;8.24;57.64;101681.34;4933929;28;124161;-67
2021/03/09 05:42:47;;;;;;;59.90;31.30;;;;;;;8.25;57.86;101683.09;4916384;28;119528;-67
2021/03/09 05:45:14;;;;;;;58.08;31.25;;;;;;;8.26;57.79;101676.91;4932105;28;120291;-67
2021/03/09 05:47:41;;;;;;;62.60;32.85;;;;;;;8.27;57.90;101683.03;4930844;28;123769;-67
2021/03/09 05:50:09;;;;;;;60.83;31.67;;;;;;;8.27;57.98;101681.28;4931377;28;124852;-67
2021/03/09 05:52:37;;;;;;;61.72;32.33;;;;;;;8.26;58.04;101671.63;4912867;28;118630;-67
2021/03/09 05:55:06;;;;;;;61.00;32.15;;;;;;;8.27;58.06;101668.09;4931875;28;118591;-67
2021/03/09 05:57:33;;;;;;;62.17;31.90;;;;;;;8.28;57.85;101671.59;4918549;28;123550;-68
2021/03/09 06:00:00;;;;;;;61.10;32.28;;;;;;;8.31;57.90;101669.75;4914200;28;123333;-68
2021/03/09 06:02:28;;;;;;;59.72;31.58;;;;;;;8.30;58.07;101673.28;4913964;28;119140;-68
2021/03/09 06:04:55;;;;;;;61.38;32.90;;;;;;;8.31;58.00;101663.63;4913859;28;119763;-67
2021/03/09 06:07:22;;;;;;;60.05;30.92;;;;;;;8.32;58.08;101666.22;4896734;28;123373;-67
2021/03/09 06:09:48;;;;;;;61.20;32.30;;;;;;;8.34;58.33;101659.16;4930611;28;122974;-67
2021/03/09 06:12:21;;;;;;;61.35;33.35;;;;;;;8.35;58.11;101660.00;4914717;28;118463;-67
2021/03/09 06:14:59;;;;;;;61.47;31.95;;;;;;;8.32;58.12;101655.66;4932361;28;119339;-68
2021/03/09 06:17:39;;;;;;;59.45;31.80;;;;;;;8.31;58.13;101647.78;4914719;28;123590;-67
2021/03/09 06:20:17;;;;;;;60.70;31.42;;;;;;;8.33;58.40;101654.75;4925407;28;124535;-67
2021/03/09 06:22:47;;;;;;;59.63;31.38;;;;;;;8.35;58.50;101654.72;4933446;28;118892;-67
2021/03/09 06:25:16;;;;;;;61.60;32.95;;;;;;;8.35;58.47;101647.66;4911779;28;119580;-68
2021/03/09 06:27:46;;;;;;;59.90;32.55;;;;;;;8.36;58.45;101641.50;4913656;28;123719;-67
2021/03/09 06:30:25;;;;;;;62.35;34.15;;;;;;;8.36;58.29;101645.88;4911256;28;122659;-67
2021/03/09 06:32:53;;;;;;;63.55;32.75;;;;;;;8.37;58.06;101653.78;4928192;28;120102;-67
2021/03/09 06:35:40;;;;;;;60.47;31.80;;;;;;;8.36;58.61;101644.16;4931895;28;119794;-67
2021/03/09 06:38:27;;;;;;;60.35;32.30;;;;;;;8.34;58.33;101648.59;4932639;28;123767;-69
2021/03/09 06:41:09;;;;;;;59.38;30.98;;;;;;;8.34;58.20;101647.69;4957518;22;122906;-72
2021/03/09 06:43:37;;;;;;;63.83;32.85;;;;;;;8.32;58.71;101650.38;4964175;28;122267;-72
2021/03/09 06:46:15;;;;;;;59.13;31.92;;;;;;;8.32;58.89;101654.78;4967415;28;119001;-72
2021/03/09 06:48:43;;;;;;;59.83;31.42;;;;;;;8.33;58.90;101652.13;4965122;28;123784;-72
2021/03/09 06:51:29;;;;;;;65.82;32.47;;;;;;;8.33;58.75;101646.84;4944434;28;122788;-72
2021/03/09 06:54:04;;;;;;;;;;;;;;;8.34;58.31;101648.59;4947803;28;119694;-73
2021/03/09 06:56:31;;;;;;;59.65;29.80;;;;;;;8.36;58.48;101651.16;4949487;28;119669;-72
2021/03/09 06:59:23;;;;;;;59.05;30.15;;;;;;;8.35;58.63;101655.59;4959676;28;124051;-72
2021/03/09 07:02:10;;;;;;;63.42;31.15;;;;;;;8.35;58.81;101660.00;4953575;28;123893;-72
2021/03/09 07:04:41;;;;;;;61.63;31.77;;;;;;;8.35;58.84;101660.88;4942396;28;119138;-72
2021/03/09 07:07:10;;;;;;;66.03;32.15;;;;;;;8.36;58.88;101662.63;4919233;28;118381;-72
2021/03/09 07:09:39;;;;;;;58.28;32.53;;;;;;;8.36;59.16;101662.63;4953920;28;124812;-72
2021/03/09 07:12:10;;;;;;;64.80;33.10;;;;;;;8.36;59.17;101667.91;4959704;28;123887;-72
2021/03/09 07:14:40;;;;;;;62.10;32.22;;;;;;;8.37;59.52;101661.69;4961043;28;118791;-72
2021/03/09 07:17:08;;;;;;;67.57;34.60;;;;;;;8.39;59.37;101662.53;4939112;28;118031;-72
2021/03/09 07:19:37;;;;;;;72.05;34.88;;;;;;;8.41;59.22;101664.28;4953455;28;123869;-72
2021/03/09 07:22:06;;;;;;;63.03;32.28;;;;;;;8.41;59.54;101674.84;4951567;28;122974;-72
2021/03/09 07:24:33;;;;;;;67.72;34.45;;;;;;;8.42;59.15;101671.31;4936943;28;121162;-72
2021/03/09 07:27:11;;;;;;;62.08;33.38;;;;;;;8.44;59.46;101674.78;4953741;28;120603;-72
2021/03/09 07:29:42;;;;;;;66.05;34.92;;;;;;;8.45;59.65;101676.53;4957215;28;124073;-72
2021/03/09 07:32:11;;;;;;;65.93;34.08;;;;;;;8.48;59.29;101671.19;4954410;28;123772;-72
2021/03/09 07:34:38;;;;;;;68.82;34.83;;;;;;;8.48;59.54;101677.34;4927038;28;119201;-72
2021/03/09 07:37:05;;;;;;;71.57;35.58;;;;;;;8.50;59.60;101678.16;4941509;28;118663;-72
2021/03/09 07:39:34;;;;;;;72.40;36.85;;;;;;;8.52;59.63;101678.13;4952731;28;125022;-72
2021/03/09 07:42:01;;;;;;;65.90;35.00;;;;;;;8.55;59.53;101683.31;4956752;28;124400;-72
2021/03/09 07:44:29;;;;;;;67.90;33.33;;;;;;;8.56;59.72;101685.06;4946371;28;118657;-72
2021/03/09 07:46:58;;;;;;;69.88;35.15;;;;;;;8.58;59.78;101683.25;4966093;28;119238;-72
2021/03/09 07:49:25;;;;;;;67.28;34.20;;;;;;;8.62;59.70;101689.34;4955619;28;123831;-72
2021/03/09 07:52:11;;;;;;;66.13;34.53;;;;;;;8.61;59.77;101683.22;4945349;28;123384;-72
2021/03/09 07:54:37;;;;;;;;;;;;;;;8.63;59.22;101691.97;4948113;28;118405;-74
2021/03/09 07:57:21;;;;;;;61.63;32.15;;;;;;;8.66;59.36;101686.59;4940942;28;119000;-75
2021/03/09 07:59:59;;;;;;;61.55;32.88;;;;;;;8.67;59.43;101693.63;4944945;28;123757;-75
2021/03/09 08:02:56;;;;;;;62.05;32.85;;;;;;;8.68;59.75;101687.44;4936183;28;123508;-75
2021/03/09 08:05:25;;;;;;;59.90;31.67;;;;;;;8.71;59.75;101689.13;4937470;28;118995;-75
2021/03/09 08:08:03;;;;;;;63.38;33.10;;;;;;;8.72;59.87;101691.75;4942574;28;118094;-74
2021/03/09 08:10:28;;;;;;;58.90;32.53;;;;;;;8.74;60.04;101682.00;4934568;28;124260;-75
2021/03/09 08:13:16;;;;;;;67.60;33.72;;;;;;;8.77;60.37;101687.19;4934359;28;123743;-75
2021/03/09 08:15:43;;;;;;;64.32;34.90;;;;;;;8.83;60.04;101685.31;4942315;28;119531;-75
2021/03/09 08:18:16;;;;;;;62.90;33.08;;;;;;;8.85;60.14;101689.66;4943328;28;119412;-75
2021/03/09 08:20:47;;;;;;;70.50;35.10;;;;;;;8.90;60.36;101692.19;4960025;28;124525;-75
2021/03/09 08:23:53;;;;;;;63.53;35.00;;;;;;;8.91;59.97;101680.72;4942970;28;124414;-75
2021/03/09 08:26:25;;;;;;;67.78;35.53;;;;;;;8.96;60.23;101678.84;4914688;28;119496;-75
2021/03/09 08:28:52;;;;;;;65.30;34.28;;;;;;;9.00;60.27;101674.34;4947939;28;119087;-75
2021/03/09 08:31:19;;;;;;;69.00;35.65;;;;;;;9.04;60.26;101676.88;4942859;28;124355;-75
2021/03/09 08:33:48;;;;;;;71.07;36.70;;;;;;;9.11;60.32;101673.16;4952897;28;122985;-75
2021/03/09 08:36:20;;;;;;;65.07;35.15;;;;;;;9.16;60.24;101681.84;4963449;28;119754;-75
2021/03/09 08:41:48;;;;;;;76.68;37.75;;;;;;;9.25;60.52;101679.84;4952722;28;123938;-75
2021/03/09 08:46:57;;;;;;;77.38;38.65;;;;;;;9.33;60.34;101677.91;4945489;28;119755;-75
2021/03/09 08:49:36;;;;;;;71.22;37.13;;;;;;;9.36;60.62;101683.09;4942573;28;117593;-75
2021/03/09 08:52:08;;;;;;;72.28;36.85;;;;;;;9.40;60.76;101684.75;4950122;28;124404;-75
2021/03/09 08:54:40;;;;;;;73.30;37.53;;;;;;;9.44;60.53;101674.97;4932903;28;123067;-75
2021/03/09 08:57:13;;;;;;;72.18;39.42;;;;;;;9.46;60.60;101673.16;4950818;28;119543;-75
2021/03/09 08:59:42;;;;;;;72.70;38.53;;;;;;;9.47;60.63;101678.38;4930179;28;118535;-75
2021/03/09 09:02:09;;;;;;;71.70;36.92;;;;;;;9.49;60.89;101673.94;4946837;28;124983;-76
2021/03/09 09:04:37;;;;;;;69.20;35.90;;;;;;;9.54;60.58;101679.09;4932434;28;123293;-75
2021/03/09 09:07:36;;;;;;;64.47;36.13;;;;;;;9.57;60.44;101675.47;4946395;28;119784;-75
2021/03/09 09:10:18;;;;;;;62.08;33.42;;;;;;;9.61;60.68;101666.59;4959456;28;119779;-75
2021/03/09 09:12:47;;;;;;;61.40;33.63;;;;;;;9.65;60.95;101668.22;4923463;28;122975;-74
2021/03/09 09:15:19;;;;;;;65.15;33.53;;;;;;;9.70;60.85;101666.28;4952266;28;125032;-74
2021/03/09 09:18:02;;;;;;;51.55;27.77;;;;;;;9.76;60.81;101676.72;4955814;28;119272;-75
2021/03/09 09:20:35;;;;;;;50.63;27.63;;;;;;;9.83;60.89;101665.06;4922522;28;117919;-74
2021/03/09 09:23:20;;;;;;;51.28;25.55;;;;;;;9.91;61.11;101663.06;4955347;28;124452;-75
2021/03/09 09:25:49;;;;;;;44.95;25.77;;;;;;;10.03;61.16;101663.59;4955422;28;124565;-75
2021/03/09 09:28:25;;;;;;;42.10;23.65;;;;;;;10.14;61.24;101666.81;4941264;28;119208;-75
2021/03/09 09:30:53;;;;;;;28.15;16.45;;;;;;;10.26;61.64;101665.56;4940602;28;118905;-75
2021/03/09 09:33:41;;;;;;;20.38;12.02;;;;;;;10.40;61.15;101657.25;4956702;28;123955;-75
2021/03/09 09:36:07;;;;;;;20.10;11.05;;;;;;;10.52;61.01;101656.84;4942980;28;122656;-74
2021/03/09 09:38:34;;;;;;;14.95;8.60;;;;;;;10.63;61.14;101654.72;4958994;28;119253;-75
2021/03/09 09:41:01;;;;;;;12.68;6.47;;;;;;;10.73;60.48;101657.94;4921991;28;118763;-75
2021/03/09 09:43:31;;;;;;;8.48;5.07;;;;;;;10.77;60.20;101656.03;4957856;28;124021;-75
2021/03/09 09:46:01;;;;;;;9.15;5.35;;;;;;;10.79;59.79;101664.81;4951270;28;123813;-75
2021/03/09 09:48:30;;;;;;;7.68;4.18;;;;;;;10.81;59.71;101666.50;4929982;28;118999;-75
2021/03/09 09:51:00;;;;;;;6.88;3.30;;;;;;;10.85;59.16;101669.91;4948411;28;118933;-75
2021/03/09 09:53:40;;;;;;;4.85;3.17;;;;;;;10.85;59.15;101664.59;4941171;28;123523;-74
2021/03/09 09:56:33;;;;;;;6.88;3.30;;;;;;;10.85;59.06;101669.91;4949779;28;122030;-75
2021/03/09 09:59:01;;;;;;;5.40;2.80;;;;;;;10.85;58.50;101669.91;4970110;28;121317;-74
2021/03/09 10:01:37;;;;;;;5.70;2.85;;;;;;;10.85;58.86;101673.44;4954293;28;119241;-75
2021/03/09 10:04:06;;;;;;;4.32;2.60;;;;;;;10.88;58.72;101680.41;4954160;28;124176;-74
2021/03/09 10:06:47;;;;;;;4.28;2.78;;;;;;;10.88;58.33;101675.97;4937900;28;124201;-75
2021/03/09 10:09:19;;;;;;;3.22;2.28;;;;;;;10.90;58.36;101675.91;4959024;28;119142;-74
2021/03/09 10:12:00;;;;;;;6.07;2.70;;;;;;;10.92;58.21;101674.09;4961679;28;118938;-75
2021/03/09 10:14:29;;;;;;;7.20;2.70;;;;;;;10.96;58.16;101678.34;4950317;28;123786;-75
2021/03/09 10:16:56;;;;;;;4.60;2.70;;;;;;;10.99;58.40;101672.97;4941273;28;123326;-75
2021/03/09 10:19:24;;;;;;;3.88;2.88;;;;;;;11.02;58.28;101670.22;4903585;28;117731;-75
2021/03/09 10:21:54;;;;;;;5.50;2.78;;;;;;;11.10;58.56;101676.13;4944684;28;119075;-75
2021/03/09 10:24:33;;;;;;;3.78;2.78;;;;;;;11.20;58.43;101670.50;4946319;28;124827;-75
2021/03/09 10:27:01;;;;;;;4.15;2.58;;;;;;;11.27;58.09;101682.66;4932308;28;124287;-75
2021/03/09 10:29:31;;;;;;;4.28;2.78;;;;;;;11.33;57.76;101666.50;4932653;28;118701;-75
2021/03/09 10:32:03;;;;;;;4.93;2.78;;;;;;;11.40;57.92;101668.03;4950487;28;118653;-74
2021/03/09 10:34:37;;;;;;;4.03;2.90;;;;;;;11.48;58.37;101671.28;4931993;28;124183;-74
2021/03/09 10:37:06;;;;;;;6.63;2.78;;;;;;;11.56;57.67;101672.78;4947290;28;123768;-74
2021/03/09 10:39:36;;;;;;;5.20;3.08;;;;;;;11.62;57.34;101667.25;4948727;28;119291;-75
2021/03/09 10:42:25;;;;;;;7.28;3.20;;;;;;;11.67;57.30;101670.63;4946901;28;118897;-74
2021/03/09 10:44:53;;;;;;;5.38;3.45;;;;;;;11.72;57.11;101676.63;4930186;28;123182;-75
2021/03/09 10:47:19;;;;;;;4.95;3.65;;;;;;;11.78;57.36;101672.88;4931996;28;123298;-75
2021/03/09 10:49:46;;;;;;;9.15;3.30;;;;;;;11.85;57.17;101666.44;4948780;28;120305;-74
2021/03/09 10:52:13;;;;;;;4.47;3.15;;;;;;;11.91;57.06;101662.72;4949225;28;120254;-74
2021/03/09 10:54:46;;;;;;;6.75;3.85;;;;;;;11.95;56.71;101659.03;4947839;28;124135;-74
2021/03/09 10:57:24;;;;;;;5.38;4.13;;;;;;;11.96;56.53;101660.75;4932580;28;122831;-74
2021/03/09 10:59:50;;;;;;;6.30;3.70;;;;;;;11.97;56.54;101647.41;4919279;28;118276;-74
2021/03/09 11:02:17;;;;;;;5.50;3.90;;;;;;;11.98;56.33;101650.91;4953122;28;118719;-74
2021/03/09 11:04:44;;;;;;;6.88;4.03;;;;;;;11.98;56.29;101658.88;4952159;28;124334;-74
2021/03/09 11:07:11;;;;;;;5.78;3.78;;;;;;;11.96;55.86;101658.09;4953090;28;123933;-74
2021/03/09 11:09:38;;;;;;;4.80;3.72;;;;;;;11.94;55.58;101657.28;4934995;28;119131;-74
2021/03/09 11:12:05;;;;;;;5.80;3.92;;;;;;;11.90;55.32;101660.97;4951930;28;119201;-73
2021/03/09 11:14:31;;;;;;;5.63;4.30;;;;;;;11.87;55.58;101652.19;4952014;28;124176;-74
2021/03/09 11:16:58;;;;;;;5.05;3.97;;;;;;;11.86;55.57;101655.72;4952568;28;123899;-74
2021/03/09 11:19:25;;;;;;;4.60;3.58;;;;;;;11.85;55.29;101654.03;4934897;28;117822;-73
2021/03/09 11:21:51;;;;;;;5.82;4.22;;;;;;;11.84;55.32;101662.91;4952679;28;118858;-74
2021/03/09 11:24:18;;;;;;;6.45;3.85;;;;;;;11.83;55.16;101655.00;4951577;28;124066;-74
2021/03/09 11:26:44;;;;;;;5.38;3.70;;;;;;;11.82;55.38;101655.94;4932557;28;124935;-74
2021/03/09 11:29:11;;;;;;;5.70;3.50;;;;;;;11.80;55.35;101669.25;4952161;28;119033;-74
2021/03/09 11:31:38;;;;;;;4.57;3.20;;;;;;;11.79;55.13;101670.19;4935852;28;120459;-74
2021/03/09 11:34:05;;;;;;;5.15;3.05;;;;;;;11.77;55.13;101666.72;4951468;28;123209;-74